createdAt,value
2023-03-29T00:01:36.049Z,13.77
2023-03-29T00:04:04.560Z,19.23
2023-03-29T00:06:33.280Z,15.98
2023-03-29T00:09:01.917Z,12.63
2023-03-29T00:11:28.896Z,13.55
2023-03-29T00:13:55.920Z,16.80
2023-03-29T00:16:22.832Z,16.17
2023-03-29T00:18:49.591Z,15.45
2023-03-29T00:21:17.039Z,12.68
2023-03-29T00:23:43.793Z,14.55
2023-03-29T00:26:11.783Z,13.38
2023-03-29T00:28:38.569Z,14.85
2023-03-29T00:31:10.501Z,15.25
2023-03-29T00:33:37.539Z,15.93
2023-03-29T00:36:04.637Z,16.65
2023-03-29T00:38:31.780Z,17.23
2023-03-29T00:40:58.701Z,15.18
2023-03-29T00:43:25.498Z,13.15
2023-03-29T00:45:52.260Z,15.25
2023-03-29T00:48:27.257Z,13.80
2023-03-29T00:51:14.438Z,9.88
2023-03-29T00:53:44.343Z,14.10
2023-03-29T00:56:14.110Z,15.02
2023-03-29T00:58:44.577Z,15.50
2023-03-29T01:01:15.645Z,15.75
2023-03-29T01:03:49.863Z,11.27
2023-03-29T01:06:17.393Z,14.23
2023-03-29T01:08:51.048Z,12.52
2023-03-29T01:11:19.111Z,13.95
2023-03-29T01:14:05.544Z,14.40
2023-03-29T01:16:33.638Z,13.35
2023-03-29T01:19:00.461Z,17.05
2023-03-29T01:21:36.361Z,14.30
2023-03-29T01:24:35.347Z,14.75
2023-03-29T01:27:23.658Z,14.63
2023-03-29T01:29:58.637Z,14.10
2023-03-29T01:32:37.562Z,14.77
2023-03-29T01:35:10.302Z,14.18
2023-03-29T01:37:41.437Z,18.20
2023-03-29T01:40:08.475Z,11.98
2023-03-29T01:43:07.809Z,12.35
2023-03-29T01:45:43.131Z,12.15
2023-03-29T01:48:27.654Z,11.32
2023-03-29T01:51:04.671Z,10.80
2023-03-29T01:53:34.683Z,10.80
2023-03-29T01:56:21.717Z,15.65
2023-03-29T01:58:51.289Z,11.98
2023-03-29T02:01:21.529Z,9.10
2023-03-29T02:03:50.852Z,9.20
2023-03-29T02:06:20.607Z,10.18
2023-03-29T02:08:47.485Z,8.32
2023-03-29T02:11:14.449Z,9.45
2023-03-29T02:13:41.151Z,7.20
2023-03-29T02:16:12.586Z,12.18
2023-03-29T02:18:44.072Z,10.57
2023-03-29T02:21:12.293Z,9.65
2023-03-29T02:23:41.316Z,9.02
2023-03-29T02:26:08.636Z,13.35
2023-03-29T02:28:35.518Z,9.38
2023-03-29T02:31:15.068Z,10.93
2023-03-29T02:34:02.521Z,9.13
2023-03-29T02:36:32.332Z,10.60
2023-03-29T02:38:59.595Z,10.18
2023-03-29T02:41:26.435Z,11.00
2023-03-29T02:43:53.225Z,10.55
2023-03-29T02:46:20.577Z,12.50
2023-03-29T02:48:47.378Z,9.80
2023-03-29T02:51:25.473Z,11.40
2023-03-29T02:54:00.247Z,10.25
2023-03-29T02:56:27.065Z,11.98
2023-03-29T02:58:54.038Z,11.35
2023-03-29T03:01:21.020Z,8.20
2023-03-29T03:03:48.257Z,8.70
2023-03-29T03:06:15.325Z,11.32
2023-03-29T03:08:42.178Z,10.98
2023-03-29T03:11:08.945Z,12.40
2023-03-29T03:13:35.718Z,11.00
2023-03-29T03:16:03.279Z,11.00
2023-03-29T03:18:30.122Z,11.02
2023-03-29T03:21:01.899Z,10.65
2023-03-29T03:23:29.630Z,10.77
2023-03-29T03:25:56.599Z,11.00
2023-03-29T03:28:24.433Z,13.48
2023-03-29T03:30:51.208Z,10.50
2023-03-29T03:33:18.869Z,9.70
2023-03-29T03:35:48.941Z,9.35
2023-03-29T03:38:15.726Z,8.90
2023-03-29T03:40:42.658Z,10.07
2023-03-29T03:43:09.780Z,9.50
2023-03-29T03:45:36.574Z,10.27
2023-03-29T03:48:03.439Z,10.32
2023-03-29T03:50:30.214Z,12.65
2023-03-29T03:52:56.986Z,13.73
2023-03-29T03:55:24.049Z,10.18
2023-03-29T03:57:52.084Z,10.10
2023-03-29T04:00:22.915Z,9.63
2023-03-29T04:02:49.869Z,12.20
2023-03-29T04:05:17.209Z,11.55
2023-03-29T04:07:44.050Z,8.88
2023-03-29T04:10:11.178Z,10.02
2023-03-29T04:12:38.286Z,10.13
2023-03-29T04:15:05.787Z,11.15
2023-03-29T04:17:32.641Z,11.68
2023-03-29T04:20:01.482Z,10.38
2023-03-29T04:22:28.396Z,12.90
2023-03-29T04:24:55.337Z,12.45
2023-03-29T04:27:22.058Z,10.00
2023-03-29T04:29:48.935Z,13.57
2023-03-29T04:32:15.720Z,14.07
2023-03-29T04:34:42.448Z,15.13
2023-03-29T04:37:10.013Z,11.88
2023-03-29T04:39:37.551Z,12.55
2023-03-29T04:42:05.184Z,13.65
2023-03-29T04:44:35.130Z,11.80
2023-03-29T04:47:01.917Z,12.55
2023-03-29T04:49:29.071Z,16.13
2023-03-29T04:51:55.966Z,12.38
2023-03-29T04:54:22.825Z,17.70
2023-03-29T04:56:49.651Z,14.85
2023-03-29T04:59:16.495Z,13.65
2023-03-29T05:01:43.274Z,15.85
2023-03-29T05:04:12.552Z,15.57
2023-03-29T05:06:40.079Z,13.93
2023-03-29T05:09:07.851Z,15.68
2023-03-29T05:11:35.051Z,15.80
2023-03-29T05:14:03.379Z,16.35
2023-03-29T05:16:30.326Z,13.35
2023-03-29T05:18:57.720Z,19.48
2023-03-29T05:21:26.151Z,17.90
2023-03-29T05:23:53.438Z,21.40
2023-03-29T05:26:22.364Z,18.92
2023-03-29T05:28:49.989Z,18.70
2023-03-29T05:31:20.278Z,16.75
2023-03-29T05:33:51.081Z,17.17
2023-03-29T05:36:19.268Z,17.33
2023-03-29T05:38:46.863Z,20.45
2023-03-29T05:41:14.341Z,16.55
2023-03-29T05:43:41.159Z,19.10
2023-03-29T05:46:08.877Z,14.70
2023-03-29T05:48:36.046Z,11.40
2023-03-29T05:51:03.592Z,14.80
2023-03-29T05:53:30.651Z,11.60
2023-03-29T05:55:57.468Z,12.25
2023-03-29T05:58:26.610Z,14.77
2023-03-29T06:00:53.574Z,12.73
2023-03-29T06:03:23.684Z,9.95
2023-03-29T06:06:00.453Z,12.15
2023-03-29T06:08:28.558Z,9.25
2023-03-29T06:11:02.456Z,16.10
2023-03-29T06:13:32.667Z,17.42
2023-03-29T06:15:59.690Z,10.63
2023-03-29T06:18:26.656Z,13.50
2023-03-29T06:20:56.336Z,8.63
2023-03-29T06:25:51.556Z,7.88
2023-03-29T06:28:18.402Z,12.10
2023-03-29T06:30:48.427Z,12.07
2023-03-29T06:33:16.887Z,7.25
2023-03-29T06:35:44.212Z,13.32
2023-03-29T06:38:11.262Z,10.82
2023-03-29T06:40:38.229Z,11.00
2023-03-29T06:43:05.502Z,8.30
2023-03-29T06:45:33.724Z,11.27
2023-03-29T06:48:00.587Z,7.53
2023-03-29T06:50:27.438Z,9.73
2023-03-29T06:52:54.193Z,10.48
2023-03-29T06:55:22.680Z,8.13
2023-03-29T06:57:49.548Z,9.00
2023-03-29T07:00:27.889Z,10.85
2023-03-29T07:02:56.329Z,13.65
2023-03-29T07:05:24.044Z,8.80
2023-03-29T07:07:55.271Z,11.63
2023-03-29T07:10:28.067Z,8.23
2023-03-29T07:12:54.979Z,9.43
2023-03-29T07:15:21.926Z,13.50
2023-03-29T07:17:49.336Z,10.70
2023-03-29T07:20:16.910Z,9.43
2023-03-29T07:22:44.312Z,9.38
2023-03-29T07:25:12.360Z,11.63
2023-03-29T07:27:40.208Z,15.90
2023-03-29T07:30:11.179Z,14.85
2023-03-29T07:32:38.973Z,11.13
2023-03-29T07:35:06.639Z,12.52
2023-03-29T07:37:34.486Z,9.50
2023-03-29T07:40:03.473Z,11.07
2023-03-29T07:42:30.318Z,9.95
2023-03-29T07:44:58.690Z,8.02
2023-03-29T07:47:26.151Z,7.93
2023-03-29T07:49:53.242Z,8.75
2023-03-29T07:52:19.994Z,7.07
2023-03-29T07:54:46.748Z,7.82
2023-03-29T07:57:13.649Z,9.57
2023-03-29T07:59:40.862Z,6.47
2023-03-29T08:02:09.012Z,6.32
2023-03-29T08:04:36.029Z,8.23
2023-03-29T08:07:02.815Z,9.65
2023-03-29T08:09:30.024Z,6.55
2023-03-29T08:11:57.557Z,6.70
2023-03-29T08:14:24.483Z,7.20
2023-03-29T08:16:52.544Z,6.32
2023-03-29T08:19:19.421Z,9.07
2023-03-29T08:21:46.367Z,7.50
2023-03-29T08:24:13.286Z,7.45
2023-03-29T08:26:40.074Z,6.13
2023-03-29T08:29:08.364Z,5.10
2023-03-29T08:31:35.654Z,4.85
2023-03-29T08:34:02.544Z,5.63
2023-03-29T08:36:29.292Z,4.20
2023-03-29T08:38:56.179Z,4.30
2023-03-29T08:41:32.883Z,4.03
2023-03-29T08:43:59.622Z,7.18
2023-03-29T08:46:35.847Z,3.13
2023-03-29T08:49:06.185Z,4.53
2023-03-29T08:51:38.264Z,4.85
2023-03-29T08:54:17.057Z,6.72
2023-03-29T08:56:46.388Z,5.40
2023-03-29T08:59:23.153Z,4.07
2023-03-29T09:01:51.830Z,6.30
2023-03-29T09:04:23.015Z,6.13
2023-03-29T09:06:50.307Z,3.83
2023-03-29T09:09:21.845Z,7.25
2023-03-29T09:12:11.509Z,4.50
2023-03-29T09:15:09.544Z,8.30
2023-03-29T09:17:55.731Z,7.85
2023-03-29T09:20:53.650Z,5.28
2023-03-29T09:23:35.743Z,6.43
2023-03-29T09:26:57.205Z,5.40
2023-03-29T09:29:47.574Z,5.45
2023-03-29T09:32:37.368Z,3.42
2023-03-29T09:35:21.576Z,3.53
2023-03-29T09:37:49.334Z,2.88
2023-03-29T09:40:39.898Z,1.80
2023-03-29T09:43:09.373Z,3.38
2023-03-29T09:45:38.574Z,1.60
2023-03-29T09:48:15.223Z,1.90
2023-03-29T09:50:43.568Z,3.03
2023-03-29T09:53:10.505Z,2.38
2023-03-29T09:55:39.589Z,4.03
2023-03-29T09:58:27.467Z,2.20
2023-03-29T10:00:58.352Z,4.38
2023-03-29T10:03:27.296Z,1.90
2023-03-29T10:05:55.704Z,1.73
2023-03-29T10:08:27.814Z,2.65
2023-03-29T10:10:57.513Z,2.47
2023-03-29T10:13:29.396Z,1.92
2023-03-29T10:16:05.810Z,2.40
2023-03-29T10:18:32.755Z,2.30
2023-03-29T10:21:01.137Z,2.53
2023-03-29T10:23:34.415Z,3.10
2023-03-29T10:26:06.624Z,2.85
2023-03-29T10:28:34.064Z,6.32
2023-03-29T10:31:01.150Z,3.28
2023-03-29T10:33:33.322Z,3.80
2023-03-29T10:36:00.327Z,4.72
2023-03-29T10:38:28.697Z,4.97
2023-03-29T10:41:02.519Z,5.00
2023-03-29T10:43:38.509Z,3.92
2023-03-29T10:46:10.861Z,10.65
2023-03-29T10:48:37.730Z,4.65
2023-03-29T10:51:06.045Z,5.43
2023-03-29T10:53:34.266Z,5.80
2023-03-29T10:56:13.769Z,6.55
2023-03-29T11:01:53.760Z,4.55
2023-03-29T11:05:00.284Z,5.05
2023-03-29T11:07:32.937Z,4.68
2023-03-29T11:10:01.593Z,8.52
2023-03-29T11:13:00.869Z,5.87
2023-03-29T11:15:28.115Z,6.53
2023-03-29T11:18:30.473Z,6.10
2023-03-29T11:20:58.946Z,8.40
2023-03-29T11:23:44.387Z,9.25
2023-03-29T11:26:27.187Z,14.93
2023-03-29T11:29:01.077Z,11.18
2023-03-29T11:31:27.891Z,10.48
2023-03-29T11:34:22.407Z,18.02
2023-03-29T11:37:24.640Z,8.73
2023-03-29T11:40:09.233Z,11.50
2023-03-29T11:42:36.181Z,14.18
2023-03-29T11:45:04.999Z,13.48
2023-03-29T11:47:32.946Z,9.63
2023-03-29T11:50:08.270Z,10.80
2023-03-29T11:52:43.656Z,9.23
2023-03-29T11:55:26.225Z,7.63
2023-03-29T11:57:56.848Z,7.95
2023-03-29T12:00:27.948Z,12.27
2023-03-29T12:03:14.395Z,13.10
2023-03-29T12:05:49.745Z,10.73
2023-03-29T12:08:31.177Z,10.35
2023-03-29T12:11:07.220Z,9.40
2023-03-29T12:13:38.919Z,9.18
2023-03-29T12:16:16.514Z,16.75
2023-03-29T12:18:45.586Z,6.63
2023-03-29T12:21:14.225Z,12.63
2023-03-29T12:23:41.640Z,24.05
2023-03-29T12:26:27.780Z,10.05
2023-03-29T12:29:07.330Z,16.13
2023-03-29T12:31:45.637Z,9.35
2023-03-29T12:34:35.091Z,9.52
2023-03-29T12:37:20.971Z,8.57
2023-03-29T12:39:48.758Z,13.80
2023-03-29T12:42:22.206Z,12.48
2023-03-29T12:44:59.227Z,14.75
2023-03-29T12:47:27.864Z,9.20
2023-03-29T12:49:56.265Z,12.77
2023-03-29T12:52:31.439Z,8.05
2023-03-29T12:55:00.047Z,8.75
2023-03-29T12:57:28.203Z,9.93
2023-03-29T12:59:55.135Z,6.15
2023-03-29T13:02:22.038Z,9.45
2023-03-29T13:04:56.309Z,8.60
2023-03-29T13:07:23.136Z,10.38
2023-03-29T13:09:51.733Z,11.73
2023-03-29T13:12:23.010Z,8.27
2023-03-29T13:14:57.974Z,11.27
2023-03-29T13:17:26.048Z,13.30
2023-03-29T13:20:49.084Z,10.77
2023-03-29T13:23:34.512Z,11.73
2023-03-29T13:26:29.996Z,14.00
2023-03-29T13:29:21.434Z,7.22
2023-03-29T13:31:59.405Z,7.63
2023-03-29T13:34:41.274Z,9.70
2023-03-29T13:37:17.452Z,12.23
2023-03-29T13:39:51.688Z,10.65
2023-03-29T13:42:21.734Z,16.58
2023-03-29T13:44:51.581Z,10.43
2023-03-29T13:47:33.210Z,13.77
2023-03-29T13:50:01.594Z,12.10
2023-03-29T13:52:29.432Z,13.32
2023-03-29T13:54:59.741Z,7.13
2023-03-29T13:57:36.702Z,10.88
2023-03-29T14:00:23.039Z,10.68
2023-03-29T14:02:50.615Z,8.27
2023-03-29T14:05:19.435Z,8.02
2023-03-29T14:07:51.563Z,12.45
2023-03-29T14:10:21.456Z,12.90
2023-03-29T14:12:48.258Z,11.43
2023-03-29T14:15:23.908Z,14.57
2023-03-29T14:17:58.986Z,5.47
2023-03-29T14:20:27.782Z,14.77
2023-03-29T14:22:55.947Z,21.97
2023-03-29T14:25:22.995Z,13.38
2023-03-29T14:27:49.891Z,9.23
2023-03-29T14:30:23.837Z,7.63
2023-03-29T14:32:51.541Z,12.73
2023-03-29T14:35:18.540Z,11.90
2023-03-29T14:37:45.729Z,9.25
2023-03-29T14:40:18.969Z,14.77
2023-03-29T14:42:46.599Z,10.07
2023-03-29T14:45:15.398Z,9.60
2023-03-29T14:47:42.312Z,12.88
2023-03-29T14:50:21.336Z,15.40
2023-03-29T14:52:50.989Z,9.30
2023-03-29T14:55:23.592Z,7.90
2023-03-29T14:57:51.714Z,7.20
2023-03-29T15:00:28.673Z,9.10
2023-03-29T15:03:00.771Z,11.32
2023-03-29T15:05:32.494Z,12.27
2023-03-29T15:08:00.330Z,10.88
2023-03-29T15:10:27.327Z,9.07
2023-03-29T15:12:54.497Z,8.50
2023-03-29T15:15:21.545Z,11.00
2023-03-29T15:17:52.250Z,5.03
2023-03-29T15:20:24.149Z,10.70
2023-03-29T15:23:08.090Z,15.52
2023-03-29T15:25:37.129Z,8.88
2023-03-29T15:28:04.176Z,9.52
2023-03-29T15:30:39.865Z,10.40
2023-03-29T15:33:26.016Z,10.48
2023-03-29T15:35:53.653Z,8.02
2023-03-29T15:38:23.409Z,9.75
2023-03-29T15:40:54.495Z,11.43
2023-03-29T15:43:21.657Z,8.93
2023-03-29T15:45:48.808Z,9.60
2023-03-29T15:48:22.755Z,9.85
2023-03-29T15:50:49.516Z,8.65
2023-03-29T15:53:20.956Z,6.75
2023-03-29T15:55:49.030Z,10.40
2023-03-29T15:58:17.236Z,8.48
2023-03-29T16:00:44.537Z,15.40
2023-03-29T16:03:13.283Z,11.27
2023-03-29T16:05:40.504Z,9.25
2023-03-29T16:08:09.084Z,7.47
2023-03-29T16:10:36.506Z,7.93
2023-03-29T16:13:03.416Z,12.27
2023-03-29T16:15:30.853Z,11.55
2023-03-29T16:17:58.007Z,8.02
2023-03-29T16:20:24.976Z,12.18
2023-03-29T16:22:51.708Z,10.75
2023-03-29T16:25:22.672Z,11.25
2023-03-29T16:27:49.619Z,12.75
2023-03-29T16:30:16.547Z,9.32
2023-03-29T16:32:43.345Z,7.90
2023-03-29T16:35:27.888Z,8.75
2023-03-29T16:37:54.689Z,11.63
2023-03-29T16:40:21.907Z,12.32
2023-03-29T16:42:48.997Z,5.68
2023-03-29T16:45:16.144Z,6.07
2023-03-29T16:47:46.078Z,13.27
2023-03-29T16:50:18.016Z,8.52
2023-03-29T16:52:45.246Z,8.13
2023-03-29T16:55:12.659Z,13.02
2023-03-29T16:57:40.175Z,10.68
2023-03-29T17:00:08.497Z,6.93
2023-03-29T17:02:35.256Z,9.73
2023-03-29T17:05:02.025Z,24.98
2023-03-29T17:07:29.756Z,8.95
2023-03-29T17:09:56.535Z,14.98
2023-03-29T17:12:23.423Z,11.07
2023-03-29T17:14:51.122Z,9.55
2023-03-29T17:17:17.957Z,7.03
2023-03-29T17:19:44.769Z,8.18
2023-03-29T17:22:11.530Z,11.20
2023-03-29T17:24:38.422Z,7.72
2023-03-29T17:27:05.361Z,11.75
2023-03-29T17:29:32.226Z,10.38
2023-03-29T17:31:58.984Z,9.48
2023-03-29T17:34:28.901Z,9.45
2023-03-29T17:36:56.482Z,13.13
2023-03-29T17:39:25.138Z,9.75
2023-03-29T17:41:52.109Z,9.75
2023-03-29T17:44:19.281Z,10.27
2023-03-29T17:46:46.160Z,6.00
2023-03-29T17:49:15.973Z,8.02
2023-03-29T17:51:42.805Z,9.75
2023-03-29T17:54:09.778Z,8.55
2023-03-29T17:56:36.522Z,7.05
2023-03-29T17:59:03.501Z,8.00
2023-03-29T18:01:30.953Z,7.35
2023-03-29T18:03:57.770Z,7.82
2023-03-29T18:06:24.629Z,9.15
2023-03-29T18:08:53.158Z,7.07
2023-03-29T18:11:24.826Z,13.05
2023-03-29T18:13:52.346Z,8.27
2023-03-29T18:16:20.099Z,11.23
2023-03-29T18:18:46.954Z,9.27
2023-03-29T18:21:14.958Z,7.38
2023-03-29T18:23:44.387Z,10.82
2023-03-29T18:26:12.400Z,13.25
2023-03-29T18:28:39.691Z,18.20
2023-03-29T18:31:06.530Z,13.00
2023-03-29T18:33:36.449Z,10.85
2023-03-29T18:36:05.208Z,10.07
2023-03-29T18:38:35.336Z,11.23
2023-03-29T18:41:03.604Z,13.13
2023-03-29T18:43:31.435Z,17.88
2023-03-29T18:45:58.384Z,10.18
2023-03-29T18:48:25.407Z,13.93
2023-03-29T18:50:52.561Z,9.73
2023-03-29T18:53:19.644Z,9.60
2023-03-29T18:55:46.721Z,12.48
2023-03-29T18:58:14.215Z,10.32
2023-03-29T19:00:41.666Z,10.73
2023-03-29T19:03:08.847Z,11.02
2023-03-29T19:05:39.474Z,8.77
2023-03-29T19:08:07.068Z,5.25
2023-03-29T19:10:37.919Z,5.20
2023-03-29T19:13:04.817Z,5.50
2023-03-29T19:15:32.440Z,7.85
2023-03-29T19:17:59.347Z,8.07
2023-03-29T19:20:26.612Z,14.80
2023-03-29T19:22:53.668Z,9.50
2023-03-29T19:25:20.411Z,7.00
2023-03-29T19:27:47.774Z,9.00
2023-03-29T19:30:14.971Z,11.23
2023-03-29T19:32:41.793Z,10.27
2023-03-29T19:35:09.680Z,11.35
2023-03-29T19:37:37.003Z,7.07
2023-03-29T19:40:06.640Z,11.80
2023-03-29T19:42:36.113Z,10.75
2023-03-29T19:45:04.049Z,6.40
2023-03-29T19:47:31.143Z,8.98
2023-03-29T19:49:58.878Z,12.57
2023-03-29T19:52:27.954Z,10.20
2023-03-29T19:54:58.643Z,10.43
2023-03-29T19:57:25.570Z,7.05
2023-03-29T19:59:53.991Z,11.60
2023-03-29T20:02:20.878Z,6.50
2023-03-29T20:04:47.618Z,8.55
2023-03-29T20:07:14.356Z,6.45
2023-03-29T20:09:44.625Z,8.10
2023-03-29T20:12:11.972Z,8.60
2023-03-29T20:14:40.265Z,9.85
2023-03-29T20:17:07.407Z,13.98
2023-03-29T20:19:36.534Z,7.90
2023-03-29T20:22:03.927Z,11.95
2023-03-29T20:24:32.507Z,10.55
2023-03-29T20:26:59.320Z,10.57
2023-03-29T20:29:26.024Z,11.18
2023-03-29T20:31:53.388Z,11.05
2023-03-29T20:34:20.307Z,11.88
2023-03-29T20:36:47.157Z,7.07
2023-03-29T20:39:17.692Z,10.00
2023-03-29T20:41:47.441Z,6.95
2023-03-29T20:44:16.833Z,8.15
2023-03-29T20:46:54.630Z,6.97
2023-03-29T20:49:26.246Z,8.15
2023-03-29T20:52:03.343Z,8.25
2023-03-29T20:54:30.198Z,4.88
2023-03-29T20:56:56.969Z,7.30
2023-03-29T20:59:23.757Z,5.72
2023-03-29T21:01:52.026Z,8.48
2023-03-29T21:04:19.144Z,8.05
2023-03-29T21:06:49.516Z,8.93
2023-03-29T21:09:20.977Z,5.50
2023-03-29T21:11:48.485Z,8.40
2023-03-29T21:14:19.443Z,6.70
2023-03-29T21:16:47.553Z,6.40
2023-03-29T21:19:15.492Z,6.55
2023-03-29T21:21:43.060Z,8.20
2023-03-29T21:24:10.889Z,8.95
2023-03-29T21:26:37.576Z,9.52
2023-03-29T21:29:04.321Z,13.38
2023-03-29T21:31:31.233Z,6.53
2023-03-29T21:33:58.655Z,10.52
2023-03-29T21:36:25.817Z,10.68
2023-03-29T21:38:52.588Z,8.13
2023-03-29T21:41:19.328Z,17.98
2023-03-29T21:43:46.031Z,8.48
2023-03-29T21:46:12.882Z,12.50
2023-03-29T21:48:39.735Z,16.60
2023-03-29T21:51:07.198Z,11.70
2023-03-29T21:53:34.199Z,7.75
2023-03-29T21:56:01.236Z,15.57
2023-03-29T21:58:27.941Z,14.07
2023-03-29T22:00:55.283Z,13.30
2023-03-29T22:03:22.027Z,7.35
2023-03-29T22:06:02.589Z,9.68
2023-03-29T22:08:29.919Z,10.45
2023-03-29T22:10:57.001Z,8.07
2023-03-29T22:13:27.945Z,17.27
2023-03-29T22:16:01.636Z,18.52
2023-03-29T22:18:30.233Z,8.25
2023-03-29T22:20:57.305Z,12.85
2023-03-29T22:23:25.158Z,10.25
2023-03-29T22:25:52.222Z,16.60
2023-03-29T22:28:24.154Z,18.60
2023-03-29T22:30:51.013Z,14.95
2023-03-29T22:33:17.757Z,11.95
2023-03-29T22:35:44.454Z,15.52
2023-03-29T22:38:11.192Z,18.55
2023-03-29T22:40:40.424Z,13.13
2023-03-29T22:44:03.169Z,10.32
2023-03-29T22:46:30.014Z,15.20
2023-03-29T22:48:56.854Z,12.60
2023-03-29T22:51:23.591Z,14.30
2023-03-29T22:53:50.325Z,13.02
2023-03-29T22:56:17.177Z,14.05
2023-03-29T22:58:44.340Z,7.63
2023-03-29T23:01:11.388Z,6.22
2023-03-29T23:03:38.202Z,10.00
2023-03-29T23:06:05.388Z,9.20
2023-03-29T23:08:32.416Z,7.53
2023-03-29T23:10:59.390Z,8.65
2023-03-29T23:13:28.857Z,15.02
2023-03-29T23:15:57.939Z,13.48
2023-03-29T23:18:25.029Z,12.02
2023-03-29T23:20:52.928Z,15.27
2023-03-29T23:23:20.549Z,16.70
2023-03-29T23:25:48.007Z,9.80
2023-03-29T23:28:15.589Z,14.20
2023-03-29T23:30:42.429Z,10.68
2023-03-29T23:33:10.518Z,11.60
2023-03-29T23:35:37.882Z,11.15
2023-03-29T23:38:05.803Z,11.00
2023-03-29T23:40:33.310Z,15.05
2023-03-29T23:43:00.153Z,12.18
2023-03-29T23:45:27.951Z,11.48
2023-03-29T23:47:54.774Z,11.13
2023-03-29T23:50:22.616Z,12.50
2023-03-29T23:52:49.622Z,11.77
2023-03-29T23:55:16.355Z,16.17
2023-03-29T23:57:43.103Z,21.65
